Strona główna
METAR-TAF:

METAR-TAF

Lotnisko :

Port lotniczy Irkuck

Irkuck, Rosja

Szerokość geograficzna: 52-16N, Długość geograficzna: 104-19E, wysokość: 513 m

Aktualna obserwacja pogody

Raport powstał 43 minut temu, godzina 02:00 UTC
Wiatr 2 kt z kierunków zmiennych
Temperatura 4°C
Wilgotność 87%
Ciśnienie 1019 hPa
Widzialność 10 km lub więcej
Brak chmur poniżej 1500 m i brak chmur cumulonimbus

METAR: UIII 180200Z VRB01MPS CAVOK 04/02 Q1019 R30/60D NOSIG RMK QFE719/0959

czas: 10:43 (02:43 UTC)

Prognoza

Raport powstał 43 minut temu, godzina 02:00 UTC
Prognoza ważna od 18 godzina 03 UTC do 19 godzina 03 UTC
Wiatr 10 kt od południowo-południowy wschód
Widzialność 10 km lub więcej
Brak chmur poniżej 1500 m i brak chmur cumulonimbus

TAF: UIII 180200Z 1803/1903 16005MPS CAVOK

Obserwacja i prognoza pogody dla ponad 4000 lotnisk (raport METAR i TAF).

Dostępne stacje oznaczono żółtymi i czerwonymi punktami na mapie.

Najedź kursorem aby zobaczyć nazwę stacji.

Kliknij aby zobaczyć obserwacje i prognozy pogody.

Aby zmienić mapę: kliknij na zielony przycisk z czarnym krzyżykiem, aby powiększyć; na zielony przycisk z myślnikiem, aby pomniejszyć; na zielone strzałki, aby przejść do map sąsiednich.


METAR-TAF: